Time,TemperatureF,DewpointF,PressureIn,WindDirection,WindDirectionDegrees,WindSpeedMPH,WindSpeedGustMPH,Humidity,HourlyPrecipIn,Conditions,Clouds,dailyrainin,SoftwareType,DateUTC
2015-09-04 00:07:00,72.9,70.1,29.82,SW,225,0.0,-999.0,91,-99.99,,,0.00,Acu-Link.com,2015-09-04 04:07:00,
2015-09-04 00:22:00,72.7,69.9,29.82,SW,225,0.0,-999.0,91,-99.99,,,0.00,Acu-Link.com,2015-09-04 04:22:00,
2015-09-04 00:37:00,72.5,69.7,29.82,SW,225,0.0,-999.0,91,-99.99,,,0.00,Acu-Link.com,2015-09-04 04:37:00,
2015-09-04 00:53:00,72.3,69.8,29.82,SW,225,0.0,-999.0,92,-99.99,,,0.00,Acu-Link.com,2015-09-04 04:53:00,
2015-09-04 01:08:00,72.1,69.6,29.82,SW,225,0.0,-999.0,92,-99.99,,,0.00,Acu-Link.com,2015-09-04 05:08:00,
2015-09-04 01:23:00,72.0,69.5,29.83,SW,225,0.0,-999.0,92,-99.99,,,0.00,Acu-Link.com,2015-09-04 05:23:00,
2015-09-04 01:38:00,71.8,69.7,29.82,SW,225,0.0,-999.0,93,-99.99,,,0.00,Acu-Link.com,2015-09-04 05:38:00,
2015-09-04 01:53:00,71.6,69.8,29.82,SW,225,0.0,-999.0,94,-99.99,,,0.00,Acu-Link.com,2015-09-04 05:53:00,
2015-09-04 02:08:00,71.2,69.4,29.83,SW,225,0.0,-999.0,94,-99.99,,,0.00,Acu-Link.com,2015-09-04 06:08:00,
2015-09-04 02:23:00,71.1,69.3,29.83,SW,225,0.0,-999.0,94,-99.99,,,0.00,Acu-Link.com,2015-09-04 06:23:00,
2015-09-04 02:38:00,70.7,69.2,29.83,SW,225,0.0,-999.0,95,-99.99,,,0.00,Acu-Link.com,2015-09-04 06:38:00,
2015-09-04 02:54:00,70.5,69.0,29.82,NE,45,0.0,-999.0,95,-99.99,,,0.00,Acu-Link.com,2015-09-04 06:54:00,
2015-09-04 03:09:00,70.3,69.1,29.82,NNE,22,0.0,-999.0,96,-99.99,,,0.00,Acu-Link.com,2015-09-04 07:09:00,
2015-09-04 03:24:00,70.2,69.0,29.82,WNW,292,0.0,-999.0,96,-99.99,,,0.00,Acu-Link.com,2015-09-04 07:24:00,
2015-09-04 03:39:00,69.8,68.9,29.83,WSW,247,0.0,-999.0,97,-99.99,,,0.00,Acu-Link.com,2015-09-04 07:39:00,
2015-09-04 03:54:00,69.8,68.9,29.83,SSW,202,0.0,-999.0,97,-99.99,,,0.00,Acu-Link.com,2015-09-04 07:54:00,
2015-09-04 04:25:00,69.6,68.7,29.84,WSW,247,0.0,-999.0,97,-99.99,,,0.00,Acu-Link.com,2015-09-04 08:25:00,
2015-09-04 04:40:00,69.4,68.5,29.84,SSW,202,0.0,-999.0,97,-99.99,,,0.00,Acu-Link.com,2015-09-04 08:40:00,
2015-09-04 04:55:00,69.3,68.4,29.85,NE,45,0.0,-999.0,97,-99.99,,,0.00,Acu-Link.com,2015-09-04 08:55:00,
2015-09-04 05:10:00,69.3,68.7,29.85,NE,45,0.0,-999.0,98,-99.99,,,0.00,Acu-Link.com,2015-09-04 09:10:00,
2015-09-04 05:25:00,68.9,68.3,29.85,NNE,22,0.0,-999.0,98,-99.99,,,0.00,Acu-Link.com,2015-09-04 09:25:00,
2015-09-04 05:40:00,68.7,68.4,29.86,SSE,157,0.0,-999.0,99,-99.99,,,0.00,Acu-Link.com,2015-09-04 09:40:00,
2015-09-04 05:55:00,68.9,68.6,29.87,SW,225,0.0,-999.0,99,-99.99,,,0.00,Acu-Link.com,2015-09-04 09:55:00,
2015-09-04 06:11:00,68.7,68.4,29.87,SSW,202,0.0,-999.0,99,-99.99,,,0.00,Acu-Link.com,2015-09-04 10:11:00,
2015-09-04 06:26:00,68.5,68.2,29.87,SE,135,0.0,-999.0,99,-99.99,,,0.00,Acu-Link.com,2015-09-04 10:26:00,
2015-09-04 06:56:00,68.5,68.2,29.89,SE,135,0.0,-999.0,99,-99.99,,,0.00,Acu-Link.com,2015-09-04 10:56:00,
2015-09-04 07:11:00,68.7,68.4,29.89,SE,135,0.0,-999.0,99,-99.99,,,0.00,Acu-Link.com,2015-09-04 11:11:00,
2015-09-04 07:26:00,69.3,69.0,29.90,SE,135,0.0,-999.0,99,-99.99,,,0.00,Acu-Link.com,2015-09-04 11:26:00,
2015-09-04 07:41:00,69.4,69.1,29.91,SE,135,0.0,-999.0,99,-99.99,,,0.00,Acu-Link.com,2015-09-04 11:41:00,
2015-09-04 07:56:00,70.0,69.7,29.91,SE,135,0.0,-999.0,99,-99.99,,,0.00,Acu-Link.com,2015-09-04 11:56:00,
2015-09-04 08:12:00,70.3,70.0,29.92,SE,135,0.0,-999.0,99,-99.99,,,0.00,Acu-Link.com,2015-09-04 12:12:00,
2015-09-04 08:27:00,71.4,71.1,29.92,WSW,247,0.0,-999.0,99,-99.99,,,0.00,Acu-Link.com,2015-09-04 12:27:00,
2015-09-04 08:42:00,72.3,72.0,29.92,West,270,0.0,-999.0,99,-99.99,,,0.00,Acu-Link.com,2015-09-04 12:42:00,
2015-09-04 08:57:00,73.0,72.4,29.93,WSW,247,0.0,-999.0,98,-99.99,,,0.00,Acu-Link.com,2015-09-04 12:57:00,
2015-09-04 09:12:00,74.1,72.6,29.93,ENE,67,0.0,-999.0,95,-99.99,,,0.00,Acu-Link.com,2015-09-04 13:12:00,
2015-09-04 09:27:00,76.5,72.0,29.93,ESE,112,2.2,-999.0,86,-99.99,,,0.00,Acu-Link.com,2015-09-04 13:27:00,
2015-09-04 09:42:00,77.5,72.3,29.94,NE,45,0.0,-999.0,84,-99.99,,,0.00,Acu-Link.com,2015-09-04 13:42:00,
2015-09-04 09:57:00,78.6,72.6,29.94,East,90,2.2,-999.0,82,-99.99,,,0.00,Acu-Link.com,2015-09-04 13:57:00,
2015-09-04 10:13:00,79.7,73.0,29.94,ESE,112,3.2,-999.0,80,-99.99,,,0.00,Acu-Link.com,2015-09-04 14:13:00,
2015-09-04 10:28:00,80.4,73.3,29.94,East,90,2.7,-999.0,79,-99.99,,,0.00,Acu-Link.com,2015-09-04 14:28:00,
2015-09-04 10:43:00,81.1,73.2,29.95,ENE,67,2.2,-999.0,77,-99.99,,,0.00,Acu-Link.com,2015-09-04 14:43:00,
2015-09-04 10:58:00,82.6,73.9,29.95,East,90,1.1,-999.0,75,-99.99,,,0.00,Acu-Link.com,2015-09-04 14:58:00,
2015-09-04 11:13:00,82.4,73.7,29.95,East,90,2.2,-999.0,75,-99.99,,,0.00,Acu-Link.com,2015-09-04 15:13:00,